This is the latest recevied weather packets stored in our database for station/object SQ6IUS-13. If no packets are shown the sender has not sent any weather packets the latest 10 day(s).
| Time | Temp. | Humidity | Pressure | Rain* | Wind** | Luminosity | Snow |
|---|---|---|---|---|---|---|---|
| 1788480185 | 16.67° C | 100% | 1016.1 hPa | - | - | - | - |
| 1788475690 | 16.67° C | 100% | 1016.6 hPa | - | - | - | - |
| 1788474791 | 17.22° C | 100% | 1016.6 hPa | - | - | - | - |
| 1788472992 | 17.22° C | 100% | 1016.7 hPa | - | - | - | - |
| 1788471195 | 18.33° C | 100% | 1016.6 hPa | - | - | - | - |
| 1788470295 | 18.33° C | 100% | 1016.4 hPa | - | - | - | - |
| 1788469396 | 18.33° C | 100% | 1016.5 hPa | - | - | - | - |
| 1788465801 | 18.89° C | 100% | 1016.5 hPa | - | - | - | - |
| 1788464902 | 17.78° C | 100% | 1016.3 hPa | - | - | - | - |
| 1788449620 | 23.89° C | 71% | 1017 hPa | - | - | - | - |
| 1788446925 | 23.33° C | 73% | 1017.4 hPa | - | - | - | - |
| 1788446026 | 23.33° C | 67% | 1017.5 hPa | - | - | - | - |
| 1788445127 | 23.89° C | 57% | 1017.6 hPa | - | - | - | - |
| 1788444228 | 23.89° C | 54% | 1017.7 hPa | - | - | - | - |
| 1788443329 | 23.89° C | 53% | 1017.8 hPa | - | - | - | - |
| 1788442430 | 25° C | 51% | 1017.8 hPa | - | - | - | - |
| 1788441532 | 26.11° C | 46% | 1017.9 hPa | - | - | - | - |
| 1788440633 | 25° C | 48% | 1018 hPa | - | - | - | - |
| 1788439734 | 24.44° C | 50% | 1018.1 hPa | - | - | - | - |
| 1788437935 | 24.44° C | 57% | 1018.4 hPa | - | - | - | - |
| 1788435238 | 25° C | 59% | 1018.8 hPa | - | - | - | - |
| 1788434340 | 23.89° C | 65% | 1018.8 hPa | - | - | - | - |
| 1788433441 | 23.89° C | 79% | 1019 hPa | - | - | - | - |
| 1788431647 | 23.33° C | 90% | 1019.2 hPa | - | - | - | - |
| 1788430745 | 23.89° C | 100% | 1019.2 hPa | - | - | - | - |
* Rain since midnight (hover to see other rain measurements)
** Current wind speed in m/s (hover to see current wind gust speed)